createdAt,value
2023-05-02T00:01:33.889Z,21.83
2023-05-02T00:04:03.809Z,21.30
2023-05-02T00:06:34.054Z,21.80
2023-05-02T00:09:06.547Z,21.67
2023-05-02T00:11:36.290Z,23.80
2023-05-02T00:14:05.993Z,23.75
2023-05-02T00:16:35.745Z,23.67
2023-05-02T00:19:05.495Z,23.45
2023-05-02T00:21:35.956Z,24.52
2023-05-02T00:24:09.087Z,23.17
2023-05-02T00:26:38.824Z,25.67
2023-05-02T00:29:08.976Z,25.42
2023-05-02T00:31:38.711Z,25.58
2023-05-02T00:34:08.440Z,26.58
2023-05-02T00:36:38.124Z,28.15
2023-05-02T00:39:11.008Z,26.38
2023-05-02T00:41:40.734Z,25.30
2023-05-02T00:44:10.424Z,26.60
2023-05-02T00:46:40.672Z,30.10
2023-05-02T00:49:10.417Z,27.83
2023-05-02T00:51:40.097Z,32.15
2023-05-02T00:54:12.365Z,30.10
2023-05-02T00:56:42.324Z,31.00
2023-05-02T00:59:13.292Z,34.53
2023-05-02T01:01:53.720Z,33.28
2023-05-02T01:04:34.907Z,31.98
2023-05-02T01:07:14.089Z,32.83
2023-05-02T01:09:56.541Z,32.90
2023-05-02T01:12:30.833Z,33.33
2023-05-02T01:15:01.928Z,34.58
2023-05-02T01:17:35.212Z,36.00
2023-05-02T01:20:08.020Z,36.45
2023-05-02T01:22:38.621Z,36.75
2023-05-02T01:25:20.366Z,37.03
2023-05-02T01:27:57.577Z,37.20
2023-05-02T01:30:32.560Z,37.10
2023-05-02T01:33:03.293Z,37.10
2023-05-02T01:35:33.962Z,37.35
2023-05-02T01:38:04.347Z,39.63
2023-05-02T01:40:34.839Z,40.50
2023-05-02T01:43:05.841Z,41.60
2023-05-02T01:45:39.364Z,42.60
2023-05-02T01:48:09.730Z,44.05
2023-05-02T01:50:40.549Z,43.20
2023-05-02T01:53:13.877Z,44.45
2023-05-02T01:55:45.251Z,44.28
2023-05-02T01:58:17.240Z,43.00
2023-05-02T02:00:50.370Z,40.53
2023-05-02T02:03:21.133Z,39.03
2023-05-02T02:05:51.727Z,37.33
2023-05-02T02:08:21.554Z,35.53
2023-05-02T02:10:59.691Z,34.80
2023-05-02T02:13:36.220Z,32.22
2023-05-02T02:16:10.408Z,33.07
2023-05-02T02:18:41.836Z,32.50
2023-05-02T02:21:13.517Z,31.30
2023-05-02T02:23:44.349Z,32.03
2023-05-02T02:26:15.563Z,32.15
2023-05-02T02:28:45.690Z,30.83
2023-05-02T02:31:17.990Z,29.50
2023-05-02T02:33:47.877Z,30.00
2023-05-02T02:36:30.439Z,29.03
2023-05-02T02:39:07.825Z,28.77
2023-05-02T02:41:42.761Z,28.80
2023-05-02T02:44:20.723Z,28.10
2023-05-02T02:47:03.847Z,28.30
2023-05-02T02:49:39.219Z,27.23
2023-05-02T02:52:13.774Z,26.83
2023-05-02T02:54:48.034Z,25.85
2023-05-02T02:57:21.284Z,23.65
2023-05-02T02:59:55.839Z,24.38
2023-05-02T03:02:32.243Z,22.95
2023-05-02T03:05:03.647Z,22.65
2023-05-02T03:07:33.561Z,22.60
2023-05-02T03:10:07.084Z,22.40
2023-05-02T03:12:40.169Z,21.83
2023-05-02T03:15:21.381Z,22.57
2023-05-02T03:17:53.740Z,21.13
2023-05-02T03:20:24.104Z,20.53
2023-05-02T03:22:53.859Z,21.25
2023-05-02T03:25:23.514Z,18.65
2023-05-02T03:27:54.280Z,18.60
2023-05-02T03:30:24.075Z,18.15
2023-05-02T03:32:57.267Z,15.30
2023-05-02T03:35:27.383Z,16.33
2023-05-02T03:37:57.067Z,15.50
2023-05-02T03:40:26.694Z,14.50
2023-05-02T03:42:57.864Z,14.88
2023-05-02T03:45:34.215Z,15.32
2023-05-02T03:48:07.114Z,14.90
2023-05-02T03:50:37.728Z,14.38
2023-05-02T03:53:08.076Z,14.37
2023-05-02T03:55:46.668Z,15.02
2023-05-02T03:58:25.423Z,14.20
2023-05-02T04:00:55.820Z,14.52
2023-05-02T04:03:30.097Z,15.95
2023-05-02T04:06:01.825Z,14.35
2023-05-02T04:08:31.663Z,13.77
2023-05-02T04:11:04.825Z,15.53
2023-05-02T04:13:34.682Z,15.63
2023-05-02T04:16:04.860Z,15.25
2023-05-02T04:18:40.522Z,15.57
2023-05-02T04:21:11.320Z,15.40
2023-05-02T04:23:42.382Z,15.60
2023-05-02T04:26:12.141Z,16.13
2023-05-02T04:29:00.973Z,17.20
2023-05-02T04:31:30.809Z,15.25
2023-05-02T04:34:04.465Z,15.60
2023-05-02T04:36:40.260Z,15.70
2023-05-02T04:39:12.613Z,15.93
2023-05-02T04:41:47.831Z,17.13
2023-05-02T04:44:18.421Z,18.07
2023-05-02T04:46:48.792Z,20.25
2023-05-02T04:49:21.114Z,19.33
2023-05-02T04:51:52.152Z,18.60
2023-05-02T04:54:22.845Z,20.23
2023-05-02T04:56:52.624Z,21.60
2023-05-02T04:59:23.807Z,21.67
2023-05-02T05:01:53.962Z,23.00
2023-05-02T05:04:27.776Z,22.95
2023-05-02T05:06:57.716Z,25.90
2023-05-02T05:09:30.109Z,25.13
2023-05-02T05:11:59.909Z,25.17
2023-05-02T05:14:31.511Z,25.88
2023-05-02T05:17:01.564Z,24.25
2023-05-02T05:19:34.758Z,26.33
2023-05-02T05:22:04.897Z,24.67
2023-05-02T05:24:35.290Z,24.42
2023-05-02T05:27:06.291Z,25.65
2023-05-02T05:29:36.299Z,23.90
2023-05-02T05:32:06.387Z,22.95
2023-05-02T05:34:41.132Z,22.80
2023-05-02T05:37:10.913Z,22.60
2023-05-02T05:39:40.808Z,21.95
2023-05-02T05:42:10.779Z,19.70
2023-05-02T05:44:41.801Z,18.58
2023-05-02T05:47:12.953Z,18.02
2023-05-02T05:49:45.285Z,17.83
2023-05-02T05:52:15.022Z,12.10
2023-05-02T05:54:44.849Z,11.40
2023-05-02T05:57:14.577Z,9.77
2023-05-02T05:59:45.797Z,8.68
2023-05-02T06:02:16.994Z,8.10
2023-05-02T06:04:49.669Z,7.90
2023-05-02T06:07:22.756Z,7.90
2023-05-02T06:09:52.468Z,8.02
2023-05-02T06:12:22.135Z,7.65
2023-05-02T06:14:52.794Z,8.02
2023-05-02T06:17:23.476Z,7.60
2023-05-02T06:19:55.909Z,8.55
2023-05-02T06:22:25.612Z,8.23
2023-05-02T06:24:56.262Z,8.70
2023-05-02T06:27:26.039Z,9.30
2023-05-02T06:29:55.983Z,8.10
2023-05-02T06:32:26.466Z,9.10
2023-05-02T06:34:58.825Z,9.18
2023-05-02T06:37:28.807Z,8.10
2023-05-02T06:39:58.708Z,8.73
2023-05-02T06:42:28.660Z,7.13
2023-05-02T06:44:58.792Z,7.90
2023-05-02T06:47:29.091Z,7.63
2023-05-02T06:50:01.850Z,7.03
2023-05-02T06:52:31.860Z,6.65
2023-05-02T06:55:01.454Z,7.50
2023-05-02T06:57:31.248Z,7.32
2023-05-02T07:00:01.524Z,7.22
2023-05-02T07:02:31.610Z,7.80
2023-05-02T07:05:03.912Z,6.20
2023-05-02T07:07:33.700Z,5.82
2023-05-02T07:10:04.234Z,5.88
2023-05-02T07:12:34.052Z,5.55
2023-05-02T07:15:03.830Z,5.65
2023-05-02T07:17:33.641Z,6.10
2023-05-02T07:20:06.392Z,6.60
2023-05-02T07:22:36.131Z,7.70
2023-05-02T07:25:06.774Z,6.88
2023-05-02T07:27:36.586Z,7.60
2023-05-02T07:30:07.195Z,6.93
2023-05-02T07:32:37.230Z,8.43
2023-05-02T07:35:10.271Z,7.50
2023-05-02T07:37:40.669Z,8.18
2023-05-02T07:40:12.229Z,8.20
2023-05-02T07:42:42.251Z,7.70
2023-05-02T07:45:12.770Z,8.20
2023-05-02T07:47:42.468Z,5.10
2023-05-02T07:50:14.995Z,5.80
2023-05-02T07:52:44.944Z,5.50
2023-05-02T07:55:15.320Z,6.30
2023-05-02T07:57:45.120Z,5.75
2023-05-02T08:00:16.430Z,5.90
2023-05-02T08:02:46.453Z,5.90
2023-05-02T08:05:19.030Z,6.30
2023-05-02T08:07:48.973Z,7.40
2023-05-02T08:10:18.709Z,7.37
2023-05-02T08:12:48.426Z,8.02
2023-05-02T08:15:18.158Z,7.47
2023-05-02T08:17:47.973Z,6.40
2023-05-02T08:20:20.417Z,5.20
2023-05-02T08:22:50.577Z,4.85
2023-05-02T08:25:20.307Z,4.80
2023-05-02T08:27:50.026Z,4.57
2023-05-02T08:30:19.863Z,5.00
2023-05-02T08:32:49.564Z,5.07
2023-05-02T08:35:21.920Z,4.95
2023-05-02T08:37:51.728Z,4.27
2023-05-02T08:40:33.610Z,4.30
2023-05-02T08:43:10.937Z,3.90
2023-05-02T08:45:43.836Z,3.60
2023-05-02T08:48:17.041Z,3.70
2023-05-02T08:50:49.775Z,3.90
2023-05-02T08:53:21.203Z,4.00
2023-05-02T08:55:51.668Z,4.00
2023-05-02T08:58:21.341Z,3.78
2023-05-02T09:00:52.270Z,4.65
2023-05-02T09:03:29.698Z,4.97
2023-05-02T09:06:07.643Z,5.57
2023-05-02T09:08:37.690Z,6.07
2023-05-02T09:11:08.109Z,6.00
2023-05-02T09:13:39.055Z,5.70
2023-05-02T09:16:10.246Z,5.95
2023-05-02T09:18:43.350Z,6.38
2023-05-02T09:21:20.499Z,6.15
2023-05-02T09:23:52.217Z,6.60
2023-05-02T09:26:23.532Z,7.28
2023-05-02T09:28:54.615Z,8.30
2023-05-02T09:31:49.930Z,7.13
2023-05-02T09:34:17.307Z,7.17
2023-05-02T09:36:51.452Z,6.25
2023-05-02T09:39:25.535Z,5.60
2023-05-02T09:41:55.800Z,6.30
2023-05-02T09:44:27.571Z,5.93
2023-05-02T09:46:59.152Z,5.20
2023-05-02T09:49:45.034Z,4.55
2023-05-02T09:52:20.165Z,4.70
2023-05-02T09:54:51.008Z,4.63
2023-05-02T09:57:21.107Z,4.75
2023-05-02T09:59:57.911Z,4.60
2023-05-02T10:02:28.225Z,4.43
2023-05-02T10:05:00.395Z,4.35
2023-05-02T10:07:33.489Z,4.93
2023-05-02T10:10:05.136Z,4.32
2023-05-02T10:12:36.163Z,4.10
2023-05-02T10:15:07.508Z,4.33
2023-05-02T10:17:43.912Z,4.97
2023-05-02T10:20:17.223Z,4.80
2023-05-02T10:22:50.862Z,5.13
2023-05-02T10:25:20.646Z,5.43
2023-05-02T10:27:50.882Z,6.38
2023-05-02T10:30:20.583Z,6.13
2023-05-02T10:32:51.265Z,6.57
2023-05-02T10:35:21.250Z,6.40
2023-05-02T10:37:53.704Z,7.00
2023-05-02T10:40:23.496Z,7.82
2023-05-02T10:42:53.963Z,7.20
2023-05-02T10:45:37.358Z,7.43
2023-05-02T10:48:19.064Z,7.20
2023-05-02T10:50:51.388Z,7.05
2023-05-02T10:53:37.368Z,7.68
2023-05-02T10:56:18.290Z,7.40
2023-05-02T10:58:49.027Z,7.70
2023-05-02T11:01:40.549Z,7.20
2023-05-02T11:04:12.150Z,7.25
2023-05-02T11:07:11.791Z,7.03
2023-05-02T11:09:44.071Z,6.85
2023-05-02T11:12:13.805Z,6.47
2023-05-02T11:14:52.770Z,6.22
2023-05-02T11:17:22.874Z,6.35
2023-05-02T11:20:25.149Z,6.80
2023-05-02T11:22:55.546Z,5.90
2023-05-02T11:25:52.071Z,5.47
2023-05-02T11:28:43.370Z,5.80
2023-05-02T11:31:48.168Z,5.53
2023-05-02T11:34:17.984Z,5.05
2023-05-02T11:36:47.658Z,4.70
2023-05-02T11:39:23.151Z,4.95
2023-05-02T11:41:55.446Z,4.93
2023-05-02T11:44:25.231Z,5.60
2023-05-02T11:46:55.944Z,4.38
2023-05-02T11:49:25.839Z,4.30
2023-05-02T11:51:55.592Z,4.60
2023-05-02T11:54:25.375Z,3.90
2023-05-02T11:56:57.764Z,4.32
2023-05-02T11:59:27.989Z,3.60
2023-05-02T12:01:58.262Z,3.97
2023-05-02T12:04:28.346Z,3.67
2023-05-02T12:06:58.565Z,3.60
2023-05-02T12:09:28.248Z,3.40
2023-05-02T12:12:02.256Z,4.50
2023-05-02T12:14:33.617Z,4.22
2023-05-02T12:17:03.975Z,3.90
2023-05-02T12:19:33.801Z,4.53
2023-05-02T12:22:03.568Z,4.40
2023-05-02T12:24:33.849Z,4.80
2023-05-02T12:27:16.275Z,3.83
2023-05-02T12:29:47.385Z,4.30
2023-05-02T12:32:18.014Z,4.67
2023-05-02T12:34:49.389Z,4.50
2023-05-02T12:37:25.597Z,4.75
2023-05-02T12:39:55.998Z,4.63
2023-05-02T12:42:29.020Z,4.60
2023-05-02T12:44:58.686Z,4.50
2023-05-02T12:47:28.645Z,4.78
2023-05-02T12:50:00.773Z,5.40
2023-05-02T12:52:57.615Z,5.25
2023-05-02T12:55:29.470Z,4.97
2023-05-02T12:58:05.828Z,4.57
2023-05-02T13:00:37.719Z,4.20
2023-05-02T13:03:08.116Z,3.58
2023-05-02T13:05:38.140Z,4.53
2023-05-02T13:08:08.786Z,5.23
2023-05-02T13:10:38.404Z,4.45
2023-05-02T13:13:10.695Z,5.13
2023-05-02T13:15:40.361Z,5.65
2023-05-02T13:18:10.195Z,5.60
2023-05-02T13:20:40.075Z,5.10
2023-05-02T13:23:09.808Z,5.25
2023-05-02T13:25:39.709Z,5.35
2023-05-02T13:28:12.020Z,5.60
2023-05-02T13:30:41.901Z,4.90
2023-05-02T13:33:11.646Z,5.40
2023-05-02T13:35:41.527Z,5.00
2023-05-02T13:38:11.182Z,4.60
2023-05-02T13:40:40.867Z,4.85
2023-05-02T13:43:13.124Z,4.05
2023-05-02T13:45:42.868Z,4.70
2023-05-02T13:48:12.548Z,4.85
2023-05-02T13:50:42.253Z,4.00
2023-05-02T13:53:11.903Z,4.53
2023-05-02T13:55:41.894Z,4.50
2023-05-02T13:58:14.184Z,5.85
2023-05-02T14:00:43.944Z,5.05
2023-05-02T14:03:14.028Z,4.90
2023-05-02T14:05:43.928Z,5.00
2023-05-02T14:08:18.445Z,4.40
2023-05-02T14:10:48.320Z,4.90
2023-05-02T14:13:20.591Z,4.70
2023-05-02T14:15:50.397Z,4.20
2023-05-02T14:18:20.118Z,5.07
2023-05-02T14:20:49.899Z,5.80
2023-05-02T14:23:19.586Z,4.82
2023-05-02T14:25:49.314Z,4.70
2023-05-02T14:28:21.534Z,4.60
2023-05-02T14:30:51.536Z,4.50
2023-05-02T14:33:21.220Z,4.67
2023-05-02T14:35:51.676Z,5.25
2023-05-02T14:38:21.720Z,4.93
2023-05-02T14:40:51.489Z,4.60
2023-05-02T14:43:24.070Z,5.28
2023-05-02T14:45:53.838Z,5.15
2023-05-02T14:48:23.488Z,5.35
2023-05-02T14:50:53.845Z,5.10
2023-05-02T14:53:23.749Z,5.60
2023-05-02T14:55:53.444Z,5.72
2023-05-02T14:58:25.749Z,4.50
2023-05-02T15:00:55.637Z,5.20
2023-05-02T15:03:25.543Z,5.20
2023-05-02T15:05:55.380Z,5.53
2023-05-02T15:08:25.326Z,5.10
2023-05-02T15:10:55.966Z,5.80
2023-05-02T15:13:28.256Z,6.37
2023-05-02T15:15:58.035Z,5.93
2023-05-02T15:18:27.737Z,6.15
2023-05-02T15:20:57.374Z,5.07
2023-05-02T15:23:27.120Z,5.20
2023-05-02T15:25:56.802Z,4.90
2023-05-02T15:28:29.032Z,5.10
2023-05-02T15:30:58.752Z,7.13
2023-05-02T15:33:28.833Z,5.80
2023-05-02T15:35:59.788Z,6.30
2023-05-02T15:38:29.584Z,6.67
2023-05-02T15:41:00.077Z,6.60
2023-05-02T15:43:32.427Z,6.60
2023-05-02T15:46:03.106Z,5.97
2023-05-02T15:48:35.003Z,6.03
2023-05-02T15:51:05.516Z,5.82
2023-05-02T15:53:39.413Z,5.33
2023-05-02T15:56:10.932Z,6.15
2023-05-02T15:58:43.442Z,6.40
2023-05-02T16:01:13.222Z,6.10
2023-05-02T16:03:43.040Z,6.20
2023-05-02T16:06:12.859Z,5.90
2023-05-02T16:08:42.590Z,6.50
2023-05-02T16:11:12.269Z,7.00
2023-05-02T16:13:44.834Z,6.32
2023-05-02T16:16:14.747Z,6.88
2023-05-02T16:18:44.585Z,7.20
2023-05-02T16:21:14.621Z,7.10
2023-05-02T16:23:44.316Z,7.80
2023-05-02T16:26:14.134Z,6.80
2023-05-02T16:28:46.376Z,7.30
2023-05-02T16:31:16.209Z,6.68
2023-05-02T16:33:45.942Z,6.90
2023-05-02T16:36:15.592Z,7.15
2023-05-02T16:38:45.213Z,6.30
2023-05-02T16:41:14.845Z,6.38
2023-05-02T16:43:47.135Z,7.15
2023-05-02T16:46:17.116Z,6.82
2023-05-02T16:48:47.077Z,7.22
2023-05-02T16:51:16.765Z,7.10
2023-05-02T16:53:46.480Z,5.72
2023-05-02T16:56:16.333Z,6.35
2023-05-02T16:58:48.597Z,6.15
2023-05-02T17:01:18.557Z,6.80
2023-05-02T17:03:48.272Z,7.25
2023-05-02T17:06:18.043Z,6.93
2023-05-02T17:08:47.701Z,6.80
2023-05-02T17:11:17.579Z,7.50
2023-05-02T17:13:50.026Z,7.20
2023-05-02T17:16:20.690Z,7.53
2023-05-02T17:18:50.911Z,7.30
2023-05-02T17:21:20.613Z,7.50
2023-05-02T17:24:03.257Z,6.70
2023-05-02T17:26:33.164Z,6.88
2023-05-02T17:32:08.385Z,6.50
2023-05-02T17:34:38.973Z,7.10
2023-05-02T17:37:08.627Z,6.50
2023-05-02T17:39:38.350Z,6.97
2023-05-02T17:42:08.164Z,7.82
2023-05-02T17:44:40.455Z,7.37
2023-05-02T17:47:10.169Z,8.30
2023-05-02T17:49:39.849Z,6.90
2023-05-02T17:52:09.503Z,7.68
2023-05-02T17:54:39.182Z,7.15
2023-05-02T17:57:10.160Z,6.90
2023-05-02T17:59:44.417Z,7.30
2023-05-02T18:02:15.775Z,7.28
2023-05-02T18:04:46.409Z,7.60
2023-05-02T18:07:16.180Z,7.50
2023-05-02T18:09:46.139Z,6.97
2023-05-02T18:12:15.819Z,6.60
2023-05-02T18:14:49.160Z,6.93
2023-05-02T18:17:20.636Z,6.78
2023-05-02T18:19:51.002Z,6.60
2023-05-02T18:22:21.835Z,6.40
2023-05-02T18:24:53.544Z,5.93
2023-05-02T18:27:23.457Z,5.90
2023-05-02T18:29:55.890Z,6.10
2023-05-02T18:32:26.214Z,6.00
2023-05-02T18:34:56.636Z,5.82
2023-05-02T18:37:31.261Z,6.20
2023-05-02T18:40:01.001Z,6.60
2023-05-02T18:42:30.687Z,5.65
2023-05-02T18:45:03.174Z,6.20
2023-05-02T18:47:33.819Z,5.80
2023-05-02T18:50:05.007Z,5.70
2023-05-02T18:52:34.698Z,5.93
2023-05-02T18:55:05.185Z,6.18
2023-05-02T18:57:35.267Z,5.80
2023-05-02T19:00:09.255Z,5.88
2023-05-02T19:02:39.232Z,6.50
2023-05-02T19:05:09.388Z,6.28
2023-05-02T19:07:39.285Z,6.20
2023-05-02T19:10:11.199Z,6.05
2023-05-02T19:12:41.909Z,6.43
2023-05-02T19:15:14.956Z,6.13
2023-05-02T19:17:45.259Z,5.95
2023-05-02T19:20:15.493Z,6.30
2023-05-02T19:22:46.226Z,6.40
2023-05-02T19:25:16.158Z,6.38
2023-05-02T19:27:47.849Z,6.25
2023-05-02T19:30:21.726Z,6.07
2023-05-02T19:32:51.856Z,5.90
2023-05-02T19:35:22.058Z,5.93
2023-05-02T19:37:51.713Z,6.25
2023-05-02T19:40:21.566Z,6.00
2023-05-02T19:42:51.248Z,5.88
2023-05-02T19:45:23.641Z,6.50
2023-05-02T19:47:53.756Z,5.80
2023-05-02T19:50:23.546Z,5.85
2023-05-02T19:52:53.336Z,5.90
2023-05-02T19:55:23.282Z,6.80
2023-05-02T19:57:52.931Z,6.47
2023-05-02T20:00:25.599Z,6.43
2023-05-02T20:02:55.485Z,5.57
2023-05-02T20:05:25.287Z,6.25
2023-05-02T20:07:54.931Z,6.50
2023-05-02T20:10:24.574Z,5.40
2023-05-02T20:12:54.241Z,5.70
2023-05-02T20:15:26.853Z,5.80
2023-05-02T20:17:58.376Z,5.75
2023-05-02T20:20:28.197Z,6.30
2023-05-02T20:22:58.304Z,5.75
2023-05-02T20:25:28.770Z,5.63
2023-05-02T20:27:58.440Z,5.68
2023-05-02T20:30:30.799Z,4.85
2023-05-02T20:33:10.553Z,5.30
2023-05-02T20:35:45.066Z,5.00
2023-05-02T20:38:17.815Z,5.97
2023-05-02T20:40:47.753Z,5.97
2023-05-02T20:43:18.958Z,5.60
2023-05-02T20:45:51.735Z,6.03
2023-05-02T20:48:21.428Z,5.95
2023-05-02T20:50:57.591Z,5.90
2023-05-02T20:53:27.313Z,6.68
2023-05-02T20:55:56.978Z,6.28
2023-05-02T20:58:27.004Z,6.45
2023-05-02T21:00:59.247Z,6.60
2023-05-02T21:03:30.498Z,6.05
2023-05-02T21:06:01.225Z,5.43
2023-05-02T21:08:31.209Z,5.77
2023-05-02T21:11:01.230Z,4.90
2023-05-02T21:13:30.966Z,5.38
2023-05-02T21:16:03.405Z,5.20
2023-05-02T21:18:33.070Z,5.30
2023-05-02T21:21:02.736Z,5.97
2023-05-02T21:23:32.448Z,5.57
2023-05-02T21:26:02.154Z,5.82
2023-05-02T21:28:31.819Z,5.05
2023-05-02T21:31:04.224Z,5.32
2023-05-02T21:33:33.864Z,5.70
2023-05-02T21:36:03.553Z,5.47
2023-05-02T21:38:33.263Z,5.70
2023-05-02T21:41:05.035Z,5.20
2023-05-02T21:43:37.520Z,6.03
2023-05-02T21:46:09.884Z,5.25
2023-05-02T21:48:39.870Z,5.20
2023-05-02T21:51:10.144Z,5.90
2023-05-02T21:53:40.281Z,6.90
2023-05-02T21:56:11.136Z,6.82
2023-05-02T21:58:40.840Z,6.45
2023-05-02T22:01:13.484Z,6.60
2023-05-02T22:03:43.253Z,6.20
2023-05-02T22:06:13.189Z,6.07
2023-05-02T22:08:42.971Z,7.00
2023-05-02T22:11:12.643Z,6.22
2023-05-02T22:13:42.310Z,6.10
2023-05-02T22:16:14.802Z,5.70
2023-05-02T22:18:45.434Z,6.30
2023-05-02T22:21:16.073Z,6.50
2023-05-02T22:23:45.788Z,4.93
2023-05-02T22:26:15.536Z,6.10
2023-05-02T22:28:45.191Z,5.40
2023-05-02T22:31:18.016Z,6.00
2023-05-02T22:33:50.064Z,5.85
2023-05-02T22:36:20.540Z,6.97
2023-05-02T22:38:50.184Z,6.55
2023-05-02T22:41:19.813Z,6.60
2023-05-02T22:43:49.459Z,7.00
2023-05-02T22:46:21.760Z,6.75
2023-05-02T22:48:53.616Z,7.80
2023-05-02T22:51:23.550Z,7.05
2023-05-02T22:53:54.175Z,7.45
2023-05-02T22:56:24.641Z,7.43
2023-05-02T22:58:54.260Z,7.68
2023-05-02T23:01:26.677Z,7.75
2023-05-02T23:03:56.704Z,7.80
2023-05-02T23:06:28.966Z,7.50
2023-05-02T23:08:58.823Z,7.07
2023-05-02T23:11:29.294Z,7.50
2023-05-02T23:13:59.080Z,6.90
2023-05-02T23:16:31.364Z,8.35
2023-05-02T23:19:01.112Z,7.00
2023-05-02T23:21:30.806Z,7.40
2023-05-02T23:24:00.552Z,7.72
2023-05-02T23:26:30.648Z,7.60
2023-05-02T23:29:00.258Z,7.72
2023-05-02T23:31:32.779Z,9.02
2023-05-02T23:34:03.094Z,8.00
2023-05-02T23:36:34.308Z,9.00
2023-05-02T23:39:05.547Z,7.60
2023-05-02T23:41:35.593Z,7.75
2023-05-02T23:44:05.252Z,8.25
2023-05-02T23:46:37.559Z,8.23
2023-05-02T23:49:07.319Z,8.30
2023-05-02T23:51:37.835Z,8.20
2023-05-02T23:54:07.617Z,8.00
2023-05-02T23:56:37.295Z,7.75
2023-05-02T23:59:07.277Z,7.80
